National Weather Service Raw Text Product

Displaying AFOS PIL: TAFOTM Received: 2018-01-12 17:42 UTC


050 
FTUS43 KDMX 121742
TAFOTM
TAF
KOTM 121742Z 1218/1318 34017KT P6SM FEW250
     FM130000 35012KT P6SM BKN240
     FM131300 34009KT P6SM SCT110=